METAR Data
IDs: Format: Raw Decoded Include TAF

Data at: 1334 UTC 26 Feb 2021

KPEX 261315Z AUTO 19013G21KT 10SM CLR 00/M02 A2977 RMK AO2